sensor_id;sensor_type;location;lat;lon;timestamp;P1;durP1;ratioP1;P2;durP2;ratioP2
12202;SDS011;6164;42.178;24.622;2023-05-19T00:02:15;3.40;;;2.30;;
12202;SDS011;6164;42.178;24.622;2023-05-19T00:04:45;4.20;;;2.38;;
12202;SDS011;6164;42.178;24.622;2023-05-19T00:07:16;3.20;;;2.15;;
12202;SDS011;6164;42.178;24.622;2023-05-19T00:09:44;3.38;;;2.30;;
12202;SDS011;6164;42.178;24.622;2023-05-19T00:12:12;3.83;;;2.60;;
12202;SDS011;6164;42.178;24.622;2023-05-19T00:14:39;5.95;;;2.42;;
12202;SDS011;6164;42.178;24.622;2023-05-19T00:17:07;4.70;;;2.53;;
12202;SDS011;6164;42.178;24.622;2023-05-19T00:19:34;3.25;;;2.40;;
12202;SDS011;6164;42.178;24.622;2023-05-19T00:22:02;5.50;;;2.72;;
12202;SDS011;6164;42.178;24.622;2023-05-19T00:24:31;3.67;;;2.47;;
12202;SDS011;6164;42.178;24.622;2023-05-19T00:26:58;5.95;;;2.60;;
12202;SDS011;6164;42.178;24.622;2023-05-19T00:29:25;5.60;;;2.90;;
12202;SDS011;6164;42.178;24.622;2023-05-19T00:31:51;4.28;;;2.83;;
12202;SDS011;6164;42.178;24.622;2023-05-19T00:34:18;5.10;;;3.00;;
12202;SDS011;6164;42.178;24.622;2023-05-19T00:36:45;3.75;;;3.22;;
12202;SDS011;6164;42.178;24.622;2023-05-19T00:39:11;7.22;;;3.15;;
12202;SDS011;6164;42.178;24.622;2023-05-19T00:41:40;5.07;;;3.30;;
12202;SDS011;6164;42.178;24.622;2023-05-19T00:44:06;4.72;;;3.05;;
12202;SDS011;6164;42.178;24.622;2023-05-19T00:46:33;4.45;;;3.25;;
12202;SDS011;6164;42.178;24.622;2023-05-19T00:49:00;5.47;;;3.00;;
12202;SDS011;6164;42.178;24.622;2023-05-19T00:51:27;3.60;;;3.03;;
12202;SDS011;6164;42.178;24.622;2023-05-19T00:53:55;4.57;;;3.10;;
12202;SDS011;6164;42.178;24.622;2023-05-19T00:56:22;5.20;;;3.03;;
12202;SDS011;6164;42.178;24.622;2023-05-19T00:58:50;3.33;;;2.75;;
12202;SDS011;6164;42.178;24.622;2023-05-19T01:01:17;6.68;;;3.20;;
12202;SDS011;6164;42.178;24.622;2023-05-19T01:03:45;6.47;;;2.85;;
12202;SDS011;6164;42.178;24.622;2023-05-19T01:06:13;6.30;;;3.28;;
12202;SDS011;6164;42.178;24.622;2023-05-19T01:08:43;4.90;;;3.20;;
12202;SDS011;6164;42.178;24.622;2023-05-19T01:11:11;5.05;;;2.92;;
12202;SDS011;6164;42.178;24.622;2023-05-19T01:13:38;6.35;;;3.33;;
12202;SDS011;6164;42.178;24.622;2023-05-19T01:16:06;6.03;;;3.55;;
12202;SDS011;6164;42.178;24.622;2023-05-19T01:18:57;4.32;;;3.55;;
12202;SDS011;6164;42.178;24.622;2023-05-19T01:21:39;4.05;;;3.13;;
12202;SDS011;6164;42.178;24.622;2023-05-19T01:24:32;6.32;;;3.03;;
12202;SDS011;6164;42.178;24.622;2023-05-19T01:27:23;4.00;;;2.75;;
12202;SDS011;6164;42.178;24.622;2023-05-19T01:30:18;5.25;;;2.80;;
12202;SDS011;6164;42.178;24.622;2023-05-19T01:32:52;4.97;;;2.67;;
12202;SDS011;6164;42.178;24.622;2023-05-19T01:35:20;4.22;;;2.50;;
12202;SDS011;6164;42.178;24.622;2023-05-19T01:37:49;5.50;;;3.17;;
12202;SDS011;6164;42.178;24.622;2023-05-19T01:40:17;5.30;;;3.00;;
12202;SDS011;6164;42.178;24.622;2023-05-19T01:42:45;4.80;;;3.05;;
12202;SDS011;6164;42.178;24.622;2023-05-19T01:45:13;4.03;;;3.10;;
12202;SDS011;6164;42.178;24.622;2023-05-19T01:47:42;4.60;;;2.83;;
12202;SDS011;6164;42.178;24.622;2023-05-19T01:50:09;6.18;;;2.60;;
12202;SDS011;6164;42.178;24.622;2023-05-19T01:52:36;4.00;;;2.80;;
12202;SDS011;6164;42.178;24.622;2023-05-19T01:55:03;9.15;;;3.58;;
12202;SDS011;6164;42.178;24.622;2023-05-19T01:57:32;4.35;;;2.70;;
12202;SDS011;6164;42.178;24.622;2023-05-19T02:00:12;4.95;;;2.80;;
12202;SDS011;6164;42.178;24.622;2023-05-19T02:02:54;3.75;;;2.80;;
12202;SDS011;6164;42.178;24.622;2023-05-19T02:05:27;3.00;;;2.55;;
12202;SDS011;6164;42.178;24.622;2023-05-19T02:08:03;3.78;;;3.03;;
12202;SDS011;6164;42.178;24.622;2023-05-19T02:10:36;4.65;;;3.25;;
12202;SDS011;6164;42.178;24.622;2023-05-19T02:13:07;5.45;;;3.38;;
12202;SDS011;6164;42.178;24.622;2023-05-19T02:15:39;6.57;;;3.10;;
12202;SDS011;6164;42.178;24.622;2023-05-19T02:18:09;3.90;;;2.60;;
12202;SDS011;6164;42.178;24.622;2023-05-19T02:20:36;6.68;;;2.95;;
12202;SDS011;6164;42.178;24.622;2023-05-19T02:23:03;5.25;;;3.10;;
12202;SDS011;6164;42.178;24.622;2023-05-19T02:25:30;5.28;;;2.88;;
12202;SDS011;6164;42.178;24.622;2023-05-19T02:27:57;7.50;;;2.90;;
12202;SDS011;6164;42.178;24.622;2023-05-19T02:30:24;6.00;;;2.92;;
12202;SDS011;6164;42.178;24.622;2023-05-19T02:32:51;3.78;;;2.92;;
12202;SDS011;6164;42.178;24.622;2023-05-19T02:35:19;3.97;;;2.90;;
12202;SDS011;6164;42.178;24.622;2023-05-19T02:37:46;3.42;;;3.08;;
12202;SDS011;6164;42.178;24.622;2023-05-19T02:40:13;5.80;;;3.10;;
12202;SDS011;6164;42.178;24.622;2023-05-19T02:42:39;3.65;;;3.22;;
12202;SDS011;6164;42.178;24.622;2023-05-19T02:45:07;4.53;;;3.13;;
12202;SDS011;6164;42.178;24.622;2023-05-19T02:47:34;5.85;;;3.33;;
12202;SDS011;6164;42.178;24.622;2023-05-19T02:50:00;4.68;;;2.92;;
12202;SDS011;6164;42.178;24.622;2023-05-19T02:52:29;6.53;;;3.00;;
12202;SDS011;6164;42.178;24.622;2023-05-19T02:54:55;10.57;;;3.10;;
12202;SDS011;6164;42.178;24.622;2023-05-19T02:57:22;5.55;;;3.33;;
12202;SDS011;6164;42.178;24.622;2023-05-19T02:59:49;3.55;;;3.05;;
12202;SDS011;6164;42.178;24.622;2023-05-19T03:02:16;5.78;;;3.60;;
12202;SDS011;6164;42.178;24.622;2023-05-19T03:04:42;5.45;;;3.20;;
12202;SDS011;6164;42.178;24.622;2023-05-19T03:07:09;4.88;;;3.60;;
12202;SDS011;6164;42.178;24.622;2023-05-19T03:09:38;4.72;;;3.28;;
12202;SDS011;6164;42.178;24.622;2023-05-19T03:12:05;4.93;;;3.13;;
12202;SDS011;6164;42.178;24.622;2023-05-19T03:14:32;5.82;;;3.28;;
12202;SDS011;6164;42.178;24.622;2023-05-19T03:17:01;3.60;;;3.22;;
12202;SDS011;6164;42.178;24.622;2023-05-19T03:19:28;5.78;;;3.33;;
12202;SDS011;6164;42.178;24.622;2023-05-19T03:21:56;5.55;;;2.92;;
12202;SDS011;6164;42.178;24.622;2023-05-19T03:24:23;5.95;;;3.95;;
12202;SDS011;6164;42.178;24.622;2023-05-19T03:26:51;4.28;;;3.33;;
12202;SDS011;6164;42.178;24.622;2023-05-19T03:29:18;4.63;;;3.83;;
12202;SDS011;6164;42.178;24.622;2023-05-19T03:31:45;4.80;;;3.50;;
12202;SDS011;6164;42.178;24.622;2023-05-19T03:34:12;5.95;;;3.60;;
12202;SDS011;6164;42.178;24.622;2023-05-19T03:36:38;5.63;;;3.40;;
12202;SDS011;6164;42.178;24.622;2023-05-19T03:39:05;5.55;;;3.65;;
12202;SDS011;6164;42.178;24.622;2023-05-19T03:41:32;3.50;;;3.10;;
12202;SDS011;6164;42.178;24.622;2023-05-19T03:44:00;5.43;;;3.50;;
12202;SDS011;6164;42.178;24.622;2023-05-19T03:46:27;8.55;;;3.40;;
12202;SDS011;6164;42.178;24.622;2023-05-19T03:48:53;5.07;;;4.10;;
12202;SDS011;6164;42.178;24.622;2023-05-19T03:51:20;6.10;;;3.95;;
12202;SDS011;6164;42.178;24.622;2023-05-19T03:53:47;4.70;;;3.30;;
12202;SDS011;6164;42.178;24.622;2023-05-19T03:56:13;6.88;;;3.63;;
12202;SDS011;6164;42.178;24.622;2023-05-19T03:58:42;5.90;;;4.10;;
12202;SDS011;6164;42.178;24.622;2023-05-19T04:01:12;5.18;;;3.45;;
12202;SDS011;6164;42.178;24.622;2023-05-19T04:03:39;3.50;;;3.17;;
12202;SDS011;6164;42.178;24.622;2023-05-19T04:06:05;5.03;;;3.67;;
12202;SDS011;6164;42.178;24.622;2023-05-19T04:08:32;5.38;;;3.40;;
12202;SDS011;6164;42.178;24.622;2023-05-19T04:10:59;5.85;;;3.88;;
12202;SDS011;6164;42.178;24.622;2023-05-19T04:13:26;5.53;;;3.53;;
12202;SDS011;6164;42.178;24.622;2023-05-19T04:15:53;6.68;;;3.55;;
12202;SDS011;6164;42.178;24.622;2023-05-19T04:18:21;6.05;;;3.53;;
12202;SDS011;6164;42.178;24.622;2023-05-19T04:20:48;8.73;;;4.03;;
12202;SDS011;6164;42.178;24.622;2023-05-19T04:23:15;4.65;;;3.40;;
12202;SDS011;6164;42.178;24.622;2023-05-19T04:25:41;4.93;;;3.65;;
12202;SDS011;6164;42.178;24.622;2023-05-19T04:28:08;4.13;;;3.53;;
12202;SDS011;6164;42.178;24.622;2023-05-19T04:30:35;5.28;;;4.00;;
12202;SDS011;6164;42.178;24.622;2023-05-19T04:33:02;6.97;;;3.40;;
12202;SDS011;6164;42.178;24.622;2023-05-19T04:35:30;5.93;;;4.00;;
12202;SDS011;6164;42.178;24.622;2023-05-19T04:37:57;6.40;;;3.97;;
12202;SDS011;6164;42.178;24.622;2023-05-19T04:40:25;4.10;;;3.70;;
12202;SDS011;6164;42.178;24.622;2023-05-19T04:42:54;4.70;;;4.18;;
12202;SDS011;6164;42.178;24.622;2023-05-19T04:45:22;4.95;;;3.85;;
12202;SDS011;6164;42.178;24.622;2023-05-19T04:47:49;5.03;;;3.72;;
12202;SDS011;6164;42.178;24.622;2023-05-19T04:50:16;8.15;;;3.50;;
12202;SDS011;6164;42.178;24.622;2023-05-19T04:52:44;4.65;;;3.47;;
12202;SDS011;6164;42.178;24.622;2023-05-19T04:55:11;4.03;;;3.58;;
12202;SDS011;6164;42.178;24.622;2023-05-19T04:57:38;4.30;;;3.90;;
12202;SDS011;6164;42.178;24.622;2023-05-19T05:00:08;5.28;;;3.85;;
12202;SDS011;6164;42.178;24.622;2023-05-19T05:02:37;4.20;;;3.80;;
12202;SDS011;6164;42.178;24.622;2023-05-19T05:05:05;3.90;;;3.45;;
12202;SDS011;6164;42.178;24.622;2023-05-19T05:07:33;4.75;;;3.72;;
12202;SDS011;6164;42.178;24.622;2023-05-19T05:10:02;7.00;;;4.15;;
12202;SDS011;6164;42.178;24.622;2023-05-19T05:12:29;5.55;;;3.42;;
12202;SDS011;6164;42.178;24.622;2023-05-19T05:14:56;7.30;;;3.78;;
12202;SDS011;6164;42.178;24.622;2023-05-19T05:17:24;7.65;;;3.80;;
12202;SDS011;6164;42.178;24.622;2023-05-19T05:19:51;6.03;;;4.20;;
12202;SDS011;6164;42.178;24.622;2023-05-19T05:22:18;4.57;;;3.72;;
12202;SDS011;6164;42.178;24.622;2023-05-19T05:24:45;4.70;;;3.65;;
12202;SDS011;6164;42.178;24.622;2023-05-19T05:27:14;9.55;;;3.95;;
12202;SDS011;6164;42.178;24.622;2023-05-19T05:29:40;6.00;;;4.30;;
12202;SDS011;6164;42.178;24.622;2023-05-19T05:32:07;6.55;;;3.78;;
12202;SDS011;6164;42.178;24.622;2023-05-19T05:34:34;4.82;;;4.13;;
12202;SDS011;6164;42.178;24.622;2023-05-19T05:37:02;4.25;;;3.85;;
12202;SDS011;6164;42.178;24.622;2023-05-19T05:39:28;7.13;;;4.43;;
12202;SDS011;6164;42.178;24.622;2023-05-19T05:41:55;4.85;;;4.13;;
12202;SDS011;6164;42.178;24.622;2023-05-19T05:44:23;5.03;;;4.53;;
12202;SDS011;6164;42.178;24.622;2023-05-19T05:46:50;7.90;;;4.90;;
12202;SDS011;6164;42.178;24.622;2023-05-19T05:49:18;6.13;;;4.93;;
12202;SDS011;6164;42.178;24.622;2023-05-19T05:51:45;5.68;;;4.70;;
12202;SDS011;6164;42.178;24.622;2023-05-19T05:54:12;6.18;;;4.82;;
12202;SDS011;6164;42.178;24.622;2023-05-19T05:56:44;7.55;;;4.80;;
12202;SDS011;6164;42.178;24.622;2023-05-19T05:59:11;6.07;;;4.68;;
12202;SDS011;6164;42.178;24.622;2023-05-19T06:01:39;8.75;;;4.78;;
12202;SDS011;6164;42.178;24.622;2023-05-19T06:04:07;5.90;;;4.90;;
12202;SDS011;6164;42.178;24.622;2023-05-19T06:06:35;9.35;;;5.28;;
12202;SDS011;6164;42.178;24.622;2023-05-19T06:09:02;5.93;;;4.80;;
12202;SDS011;6164;42.178;24.622;2023-05-19T06:11:29;6.80;;;4.88;;
12202;SDS011;6164;42.178;24.622;2023-05-19T06:13:55;7.35;;;5.20;;
12202;SDS011;6164;42.178;24.622;2023-05-19T06:16:22;6.95;;;5.15;;
12202;SDS011;6164;42.178;24.622;2023-05-19T06:18:51;6.90;;;5.18;;
12202;SDS011;6164;42.178;24.622;2023-05-19T06:21:17;8.02;;;4.97;;
12202;SDS011;6164;42.178;24.622;2023-05-19T06:23:45;6.32;;;5.72;;
12202;SDS011;6164;42.178;24.622;2023-05-19T06:26:12;8.25;;;5.28;;
12202;SDS011;6164;42.178;24.622;2023-05-19T06:28:39;6.53;;;5.63;;
12202;SDS011;6164;42.178;24.622;2023-05-19T06:31:06;5.90;;;5.15;;
12202;SDS011;6164;42.178;24.622;2023-05-19T06:33:32;9.25;;;5.78;;
12202;SDS011;6164;42.178;24.622;2023-05-19T06:36:00;8.07;;;5.60;;
12202;SDS011;6164;42.178;24.622;2023-05-19T06:38:27;8.60;;;5.85;;
12202;SDS011;6164;42.178;24.622;2023-05-19T06:40:54;7.95;;;7.10;;
12202;SDS011;6164;42.178;24.622;2023-05-19T06:43:20;10.30;;;7.95;;
12202;SDS011;6164;42.178;24.622;2023-05-19T06:45:49;7.70;;;5.93;;
12202;SDS011;6164;42.178;24.622;2023-05-19T06:48:16;10.77;;;6.10;;
12202;SDS011;6164;42.178;24.622;2023-05-19T06:50:43;7.65;;;6.28;;
12202;SDS011;6164;42.178;24.622;2023-05-19T06:53:11;6.93;;;6.22;;
12202;SDS011;6164;42.178;24.622;2023-05-19T06:55:38;9.40;;;6.22;;
12202;SDS011;6164;42.178;24.622;2023-05-19T06:58:04;9.05;;;6.78;;
12202;SDS011;6164;42.178;24.622;2023-05-19T07:00:31;7.95;;;6.53;;
12202;SDS011;6164;42.178;24.622;2023-05-19T07:02:58;7.53;;;6.05;;
12202;SDS011;6164;42.178;24.622;2023-05-19T07:05:24;8.88;;;6.43;;
12202;SDS011;6164;42.178;24.622;2023-05-19T07:07:51;7.15;;;6.45;;
12202;SDS011;6164;42.178;24.622;2023-05-19T07:10:19;8.20;;;6.45;;
12202;SDS011;6164;42.178;24.622;2023-05-19T07:12:46;8.40;;;7.00;;
12202;SDS011;6164;42.178;24.622;2023-05-19T07:15:13;7.75;;;6.43;;
12202;SDS011;6164;42.178;24.622;2023-05-19T07:17:39;10.18;;;6.80;;
12202;SDS011;6164;42.178;24.622;2023-05-19T07:20:06;9.02;;;7.03;;
12202;SDS011;6164;42.178;24.622;2023-05-19T07:22:34;7.72;;;6.85;;
12202;SDS011;6164;42.178;24.622;2023-05-19T07:25:02;7.88;;;7.10;;
12202;SDS011;6164;42.178;24.622;2023-05-19T07:27:30;8.05;;;7.25;;
12202;SDS011;6164;42.178;24.622;2023-05-19T07:29:57;8.45;;;6.90;;
12202;SDS011;6164;42.178;24.622;2023-05-19T07:32:24;7.90;;;6.15;;
12202;SDS011;6164;42.178;24.622;2023-05-19T07:34:51;8.55;;;5.75;;
12202;SDS011;6164;42.178;24.622;2023-05-19T07:37:17;9.30;;;6.82;;
12202;SDS011;6164;42.178;24.622;2023-05-19T07:39:44;7.47;;;6.78;;
12202;SDS011;6164;42.178;24.622;2023-05-19T07:42:11;9.63;;;6.75;;
12202;SDS011;6164;42.178;24.622;2023-05-19T07:44:39;8.68;;;6.63;;
12202;SDS011;6164;42.178;24.622;2023-05-19T07:47:05;7.75;;;6.63;;
12202;SDS011;6164;42.178;24.622;2023-05-19T07:49:32;12.00;;;7.53;;
12202;SDS011;6164;42.178;24.622;2023-05-19T07:51:59;10.55;;;6.93;;
12202;SDS011;6164;42.178;24.622;2023-05-19T07:54:25;8.20;;;6.80;;
12202;SDS011;6164;42.178;24.622;2023-05-19T07:56:52;11.93;;;6.95;;
12202;SDS011;6164;42.178;24.622;2023-05-19T07:59:19;7.35;;;6.70;;
12202;SDS011;6164;42.178;24.622;2023-05-19T08:01:47;8.80;;;7.15;;
12202;SDS011;6164;42.178;24.622;2023-05-19T08:04:14;11.35;;;7.10;;
12202;SDS011;6164;42.178;24.622;2023-05-19T08:06:41;10.48;;;7.43;;
12202;SDS011;6164;42.178;24.622;2023-05-19T08:09:08;7.68;;;6.82;;
12202;SDS011;6164;42.178;24.622;2023-05-19T08:11:36;7.90;;;6.75;;
12202;SDS011;6164;42.178;24.622;2023-05-19T08:14:02;8.70;;;7.18;;
12202;SDS011;6164;42.178;24.622;2023-05-19T08:16:30;11.85;;;6.95;;
12202;SDS011;6164;42.178;24.622;2023-05-19T08:18:58;9.82;;;7.55;;
12202;SDS011;6164;42.178;24.622;2023-05-19T08:21:26;10.50;;;7.90;;
12202;SDS011;6164;42.178;24.622;2023-05-19T08:23:53;8.63;;;6.90;;
12202;SDS011;6164;42.178;24.622;2023-05-19T08:26:21;8.57;;;7.60;;
12202;SDS011;6164;42.178;24.622;2023-05-19T08:28:47;7.93;;;6.50;;
12202;SDS011;6164;42.178;24.622;2023-05-19T08:31:14;8.90;;;6.90;;
12202;SDS011;6164;42.178;24.622;2023-05-19T08:33:42;10.18;;;7.28;;
12202;SDS011;6164;42.178;24.622;2023-05-19T08:36:11;9.35;;;7.30;;
12202;SDS011;6164;42.178;24.622;2023-05-19T08:38:37;8.70;;;7.35;;
12202;SDS011;6164;42.178;24.622;2023-05-19T08:41:04;7.25;;;6.45;;
12202;SDS011;6164;42.178;24.622;2023-05-19T08:43:31;14.63;;;7.18;;
12202;SDS011;6164;42.178;24.622;2023-05-19T08:45:58;7.53;;;6.78;;
12202;SDS011;6164;42.178;24.622;2023-05-19T08:48:25;10.40;;;7.50;;
12202;SDS011;6164;42.178;24.622;2023-05-19T08:50:56;9.82;;;7.93;;
12202;SDS011;6164;42.178;24.622;2023-05-19T08:53:31;10.05;;;7.38;;
12202;SDS011;6164;42.178;24.622;2023-05-19T08:56:03;11.02;;;7.10;;
12202;SDS011;6164;42.178;24.622;2023-05-19T08:58:35;7.90;;;7.05;;
12202;SDS011;6164;42.178;24.622;2023-05-19T09:01:04;9.13;;;6.82;;
12202;SDS011;6164;42.178;24.622;2023-05-19T09:03:32;10.30;;;7.72;;
12202;SDS011;6164;42.178;24.622;2023-05-19T09:06:03;9.40;;;7.68;;
12202;SDS011;6164;42.178;24.622;2023-05-19T09:08:33;9.32;;;7.47;;
12202;SDS011;6164;42.178;24.622;2023-05-19T09:11:01;8.73;;;7.10;;
12202;SDS011;6164;42.178;24.622;2023-05-19T09:13:27;8.38;;;7.38;;
12202;SDS011;6164;42.178;24.622;2023-05-19T09:15:55;11.35;;;7.82;;
12202;SDS011;6164;42.178;24.622;2023-05-19T09:18:23;10.63;;;7.55;;
12202;SDS011;6164;42.178;24.622;2023-05-19T09:20:54;9.90;;;7.93;;
12202;SDS011;6164;42.178;24.622;2023-05-19T09:23:26;11.40;;;7.72;;
12202;SDS011;6164;42.178;24.622;2023-05-19T09:25:55;8.73;;;7.57;;
12202;SDS011;6164;42.178;24.622;2023-05-19T09:28:23;11.55;;;7.90;;
12202;SDS011;6164;42.178;24.622;2023-05-19T09:30:57;9.52;;;7.70;;
12202;SDS011;6164;42.178;24.622;2023-05-19T09:33:24;9.48;;;8.18;;
12202;SDS011;6164;42.178;24.622;2023-05-19T09:35:52;11.38;;;8.07;;
12202;SDS011;6164;42.178;24.622;2023-05-19T09:38:19;10.85;;;7.97;;
12202;SDS011;6164;42.178;24.622;2023-05-19T09:40:46;10.85;;;8.32;;
12202;SDS011;6164;42.178;24.622;2023-05-19T09:43:15;9.30;;;8.40;;
12202;SDS011;6164;42.178;24.622;2023-05-19T09:45:42;9.65;;;7.95;;
12202;SDS011;6164;42.178;24.622;2023-05-19T09:48:09;10.73;;;8.30;;
12202;SDS011;6164;42.178;24.622;2023-05-19T09:50:35;14.38;;;8.27;;
12202;SDS011;6164;42.178;24.622;2023-05-19T09:53:03;11.80;;;8.48;;
12202;SDS011;6164;42.178;24.622;2023-05-19T09:55:30;12.52;;;8.45;;
12202;SDS011;6164;42.178;24.622;2023-05-19T09:57:58;9.43;;;8.35;;
12202;SDS011;6164;42.178;24.622;2023-05-19T10:00:29;9.00;;;8.07;;
12202;SDS011;6164;42.178;24.622;2023-05-19T10:03:00;11.00;;;8.02;;
12202;SDS011;6164;42.178;24.622;2023-05-19T10:05:30;9.65;;;8.18;;
12202;SDS011;6164;42.178;24.622;2023-05-19T10:07:58;10.68;;;8.50;;
12202;SDS011;6164;42.178;24.622;2023-05-19T10:10:26;11.13;;;8.73;;
12202;SDS011;6164;42.178;24.622;2023-05-19T10:12:55;12.52;;;8.25;;
12202;SDS011;6164;42.178;24.622;2023-05-19T10:15:24;11.23;;;8.45;;
12202;SDS011;6164;42.178;24.622;2023-05-19T10:17:53;12.23;;;8.98;;
12202;SDS011;6164;42.178;24.622;2023-05-19T10:20:21;10.98;;;7.82;;
12202;SDS011;6164;42.178;24.622;2023-05-19T10:22:48;12.35;;;8.88;;
12202;SDS011;6164;42.178;24.622;2023-05-19T10:25:15;10.10;;;7.93;;
12202;SDS011;6164;42.178;24.622;2023-05-19T10:27:44;12.55;;;9.30;;
12202;SDS011;6164;42.178;24.622;2023-05-19T10:30:16;11.07;;;8.77;;
12202;SDS011;6164;42.178;24.622;2023-05-19T10:32:50;12.20;;;8.18;;
12202;SDS011;6164;42.178;24.622;2023-05-19T10:35:31;15.98;;;8.65;;
12202;SDS011;6164;42.178;24.622;2023-05-19T10:38:19;9.77;;;8.77;;
12202;SDS011;6164;42.178;24.622;2023-05-19T10:40:55;13.52;;;8.95;;
12202;SDS011;6164;42.178;24.622;2023-05-19T10:43:34;10.30;;;8.50;;
12202;SDS011;6164;42.178;24.622;2023-05-19T10:46:10;10.07;;;8.15;;
12202;SDS011;6164;42.178;24.622;2023-05-19T10:48:39;11.55;;;8.77;;
12202;SDS011;6164;42.178;24.622;2023-05-19T10:51:09;12.07;;;8.27;;
12202;SDS011;6164;42.178;24.622;2023-05-19T10:53:39;11.05;;;8.30;;
12202;SDS011;6164;42.178;24.622;2023-05-19T10:56:10;10.32;;;8.32;;
12202;SDS011;6164;42.178;24.622;2023-05-19T10:58:48;11.15;;;8.15;;
12202;SDS011;6164;42.178;24.622;2023-05-19T11:01:16;8.80;;;7.97;;
12202;SDS011;6164;42.178;24.622;2023-05-19T11:03:46;11.55;;;8.52;;
12202;SDS011;6164;42.178;24.622;2023-05-19T11:06:16;9.05;;;7.80;;
12202;SDS011;6164;42.178;24.622;2023-05-19T11:08:44;11.73;;;8.30;;
12202;SDS011;6164;42.178;24.622;2023-05-19T11:11:12;10.55;;;7.70;;
12202;SDS011;6164;42.178;24.622;2023-05-19T11:13:45;10.90;;;7.95;;
12202;SDS011;6164;42.178;24.622;2023-05-19T11:16:13;12.80;;;8.38;;
12202;SDS011;6164;42.178;24.622;2023-05-19T11:18:39;10.85;;;8.20;;
12202;SDS011;6164;42.178;24.622;2023-05-19T11:21:08;10.55;;;8.32;;
12202;SDS011;6164;42.178;24.622;2023-05-19T11:23:36;11.35;;;8.50;;
12202;SDS011;6164;42.178;24.622;2023-05-19T11:26:05;15.45;;;8.02;;
12202;SDS011;6164;42.178;24.622;2023-05-19T11:28:32;11.45;;;8.90;;
12202;SDS011;6164;42.178;24.622;2023-05-19T11:30:59;12.70;;;8.07;;
12202;SDS011;6164;42.178;24.622;2023-05-19T11:33:26;9.75;;;8.45;;
12202;SDS011;6164;42.178;24.622;2023-05-19T11:35:53;13.93;;;8.32;;
12202;SDS011;6164;42.178;24.622;2023-05-19T11:38:23;11.52;;;8.40;;
12202;SDS011;6164;42.178;24.622;2023-05-19T11:40:51;13.18;;;7.25;;
12202;SDS011;6164;42.178;24.622;2023-05-19T11:43:21;8.90;;;6.07;;
12202;SDS011;6164;42.178;24.622;2023-05-19T11:45:48;10.80;;;6.85;;
12202;SDS011;6164;42.178;24.622;2023-05-19T11:48:14;11.32;;;6.90;;
12202;SDS011;6164;42.178;24.622;2023-05-19T11:50:42;9.88;;;7.68;;
12202;SDS011;6164;42.178;24.622;2023-05-19T11:53:10;14.52;;;7.28;;
12202;SDS011;6164;42.178;24.622;2023-05-19T11:55:41;12.90;;;6.55;;
12202;SDS011;6164;42.178;24.622;2023-05-19T11:58:10;13.13;;;6.82;;
12202;SDS011;6164;42.178;24.622;2023-05-19T12:00:38;9.43;;;6.50;;
12202;SDS011;6164;42.178;24.622;2023-05-19T12:03:06;8.02;;;6.40;;
12202;SDS011;6164;42.178;24.622;2023-05-19T12:05:35;10.07;;;6.38;;
12202;SDS011;6164;42.178;24.622;2023-05-19T12:08:03;10.25;;;6.95;;
12202;SDS011;6164;42.178;24.622;2023-05-19T12:10:30;8.68;;;6.78;;
12202;SDS011;6164;42.178;24.622;2023-05-19T12:12:59;11.15;;;6.88;;
12202;SDS011;6164;42.178;24.622;2023-05-19T12:15:27;12.50;;;7.53;;
12202;SDS011;6164;42.178;24.622;2023-05-19T12:17:55;11.07;;;6.40;;
12202;SDS011;6164;42.178;24.622;2023-05-19T12:20:23;10.02;;;7.00;;
12202;SDS011;6164;42.178;24.622;2023-05-19T12:22:50;9.02;;;6.35;;
12202;SDS011;6164;42.178;24.622;2023-05-19T12:25:18;8.18;;;6.72;;
12202;SDS011;6164;42.178;24.622;2023-05-19T12:27:45;9.35;;;7.00;;
12202;SDS011;6164;42.178;24.622;2023-05-19T12:30:14;14.98;;;7.03;;
12202;SDS011;6164;42.178;24.622;2023-05-19T12:32:41;8.38;;;7.15;;
12202;SDS011;6164;42.178;24.622;2023-05-19T12:35:09;10.27;;;6.90;;
12202;SDS011;6164;42.178;24.622;2023-05-19T12:37:39;7.18;;;6.47;;
12202;SDS011;6164;42.178;24.622;2023-05-19T12:40:07;7.93;;;6.28;;
12202;SDS011;6164;42.178;24.622;2023-05-19T12:42:34;7.20;;;6.50;;
12202;SDS011;6164;42.178;24.622;2023-05-19T12:45:02;10.98;;;6.72;;
12202;SDS011;6164;42.178;24.622;2023-05-19T12:47:31;12.38;;;6.97;;
12202;SDS011;6164;42.178;24.622;2023-05-19T12:50:02;8.07;;;6.93;;
12202;SDS011;6164;42.178;24.622;2023-05-19T12:52:32;11.27;;;6.05;;
12202;SDS011;6164;42.178;24.622;2023-05-19T12:55:00;7.45;;;6.18;;
12202;SDS011;6164;42.178;24.622;2023-05-19T12:57:29;6.97;;;6.20;;
12202;SDS011;6164;42.178;24.622;2023-05-19T13:00:00;10.27;;;6.47;;
12202;SDS011;6164;42.178;24.622;2023-05-19T13:02:30;9.55;;;6.85;;
12202;SDS011;6164;42.178;24.622;2023-05-19T13:04:59;10.65;;;6.63;;
12202;SDS011;6164;42.178;24.622;2023-05-19T13:07:25;10.98;;;6.97;;
12202;SDS011;6164;42.178;24.622;2023-05-19T13:09:52;7.60;;;6.80;;
12202;SDS011;6164;42.178;24.622;2023-05-19T13:12:19;10.38;;;6.55;;
12202;SDS011;6164;42.178;24.622;2023-05-19T13:14:46;8.23;;;6.40;;
12202;SDS011;6164;42.178;24.622;2023-05-19T13:17:12;9.07;;;6.90;;
12202;SDS011;6164;42.178;24.622;2023-05-19T13:19:40;7.88;;;6.28;;
12202;SDS011;6164;42.178;24.622;2023-05-19T13:22:07;8.32;;;7.10;;
12202;SDS011;6164;42.178;24.622;2023-05-19T13:24:34;8.52;;;7.28;;
12202;SDS011;6164;42.178;24.622;2023-05-19T13:27:00;8.38;;;6.45;;
12202;SDS011;6164;42.178;24.622;2023-05-19T13:29:29;9.90;;;7.10;;
12202;SDS011;6164;42.178;24.622;2023-05-19T13:31:56;9.50;;;6.63;;
12202;SDS011;6164;42.178;24.622;2023-05-19T13:34:22;9.43;;;7.00;;
12202;SDS011;6164;42.178;24.622;2023-05-19T13:36:51;12.32;;;7.43;;
12202;SDS011;6164;42.178;24.622;2023-05-19T13:39:18;9.23;;;6.70;;
12202;SDS011;6164;42.178;24.622;2023-05-19T13:41:44;7.15;;;6.43;;
12202;SDS011;6164;42.178;24.622;2023-05-19T13:44:11;7.72;;;6.75;;
12202;SDS011;6164;42.178;24.622;2023-05-19T13:46:37;7.60;;;6.70;;
12202;SDS011;6164;42.178;24.622;2023-05-19T13:49:04;8.23;;;7.25;;
12202;SDS011;6164;42.178;24.622;2023-05-19T13:51:31;10.68;;;7.40;;
12202;SDS011;6164;42.178;24.622;2023-05-19T13:53:59;9.27;;;7.90;;
12202;SDS011;6164;42.178;24.622;2023-05-19T13:56:26;8.00;;;7.05;;
12202;SDS011;6164;42.178;24.622;2023-05-19T13:58:52;8.27;;;7.47;;
12202;SDS011;6164;42.178;24.622;2023-05-19T14:01:19;9.63;;;7.50;;
12202;SDS011;6164;42.178;24.622;2023-05-19T14:03:46;12.25;;;7.85;;
12202;SDS011;6164;42.178;24.622;2023-05-19T14:06:13;8.98;;;8.07;;
12202;SDS011;6164;42.178;24.622;2023-05-19T14:08:40;8.68;;;7.65;;
12202;SDS011;6164;42.178;24.622;2023-05-19T14:11:08;8.23;;;7.40;;
12202;SDS011;6164;42.178;24.622;2023-05-19T14:13:34;8.02;;;7.10;;
12202;SDS011;6164;42.178;24.622;2023-05-19T14:16:01;8.98;;;7.78;;
12202;SDS011;6164;42.178;24.622;2023-05-19T14:18:28;9.35;;;7.78;;
12202;SDS011;6164;42.178;24.622;2023-05-19T14:20:56;10.40;;;7.85;;
12202;SDS011;6164;42.178;24.622;2023-05-19T14:23:23;10.05;;;7.95;;
12202;SDS011;6164;42.178;24.622;2023-05-19T14:25:49;11.50;;;7.57;;
12202;SDS011;6164;42.178;24.622;2023-05-19T14:28:17;11.93;;;7.55;;
12202;SDS011;6164;42.178;24.622;2023-05-19T14:30:44;8.52;;;7.53;;
12202;SDS011;6164;42.178;24.622;2023-05-19T14:33:11;11.07;;;8.18;;
12202;SDS011;6164;42.178;24.622;2023-05-19T14:35:38;9.48;;;7.85;;
12202;SDS011;6164;42.178;24.622;2023-05-19T14:38:04;9.80;;;7.93;;
12202;SDS011;6164;42.178;24.622;2023-05-19T14:40:31;10.88;;;8.30;;
12202;SDS011;6164;42.178;24.622;2023-05-19T14:42:58;11.50;;;8.30;;
12202;SDS011;6164;42.178;24.622;2023-05-19T14:45:26;15.95;;;6.80;;
12202;SDS011;6164;42.178;24.622;2023-05-19T14:47:53;11.25;;;6.13;;
12202;SDS011;6164;42.178;24.622;2023-05-19T14:50:20;15.00;;;7.15;;